Airfield :
LOGIN :

Register | Disclaimer

   EN    FR    IT 

 










Legend :    VFR   Marginal VFR   IFR   Intensive IFR   Very Intensive IFR
Visi :
Ceiling :
>= 8 km
>= 3000ft
5 to 8 km
1000 to 3000 ft
1500m to 5 km
500 to 1000 ft
800 to 1500m
200 to 500 ft
< 800m
< 200 ft
Symbols :   Thunderstorms  Fog  Heavy snow  Heavy precipitations  Wind > 20 kt
SIGMETs :     Misc.  Thunderstorms  Icing  Turbulence  Mountain Waves  Volcanic Ashes






- Airport Elevation : 3 ft
- IATA code : LWR


EHLW - Leuuwarden Air Base

CURRENT METAR :
  • 220541Z AUTO 28007KT 2100 BR OVC002 07/06 Q1035 AMB

EXPIRED METARs :
  • 220525Z AUTO 27008KT 240V300 2200 BR OVC001 06/06 Q1034 RED
  • 220510Z AUTO 27008KT 1800 BR OVC001 06/06 Q1034 RED
  • 220455Z AUTO 27008KT 2000 BR OVC002 06/06 Q1035 AMB
  • 220434Z AUTO 27009KT 2900 BR OVC002 06/06 Q1035 AMB
  • 220425Z AUTO 27009KT 2400 BR OVC001 06/06 Q1035 RED
  • 220355Z AUTO 26009KT 2500 BR BKN002 OVC003 06/06 Q1035 AMB
  • 220325Z AUTO 27009KT 2900 BR BKN002 OVC003 06/06 Q1035 AMB
  • 220255Z AUTO 27008KT 2500 BR BKN002 OVC003 06/06 Q1035 AMB

TAF TAF EHLW
Valid from the 22 at 02:00 until the 22 at 14:00 UTC


220109Z 2202/2214 24006KT 9999 FEW007 SCT010 BKN016
BECMG 2202/2205 4500 BR -DZ SCT004 BKN007
TEMPO 2204/2214 1500 DZ BR SCT002 BKN003
PROB40
TEMPO 2208/2213 9999 NSW FEW008 SCT012
BECMG 2212/2214 VRB02KT 9999 NSW FEW008 SCT018



MET'MAP, your aeronautical weather chart ! - Copyright ORBIFLY December 2007 - Disclaimer

ORBIFLY MET'MAP TEAM :

Programming & Development : Alexandra Zaïnal
Concept & original design : Baudouin d'Aumeries
Assistance for programming : Marc-Olivier Méhu
Technical & hardware support : Manuel Goepfert

Contact : metmap@orbifly.com




SOURCES & CREDITS :

   NOAA